createdAt,value
2018-11-20T00:01:23.813Z,99413.20
2018-11-20T00:04:32.118Z,99417.89
2018-11-20T00:07:38.386Z,99416.63
2018-11-20T00:10:38.722Z,99411.76
2018-11-20T00:13:28.853Z,99420.33
2018-11-20T00:16:32.391Z,99421.64
2018-11-20T00:19:35.230Z,99414.69
2018-11-20T00:22:40.199Z,99411.31
2018-11-20T00:25:39.790Z,99415.03
2018-11-20T00:28:40.743Z,99396.09
2018-11-20T00:31:29.823Z,99399.34
2018-11-20T00:34:37.505Z,99381.55
2018-11-20T00:37:18.422Z,99378.48
2018-11-20T00:40:11.513Z,99359.75
2018-11-20T00:43:14.837Z,99359.09
2018-11-20T00:46:04.058Z,99352.13
2018-11-20T00:49:30.352Z,99356.50
2018-11-20T00:52:33.304Z,99353.27
2018-11-20T00:55:26.348Z,99344.71
2018-11-20T00:58:18.479Z,99336.47
2018-11-20T01:01:07.315Z,99339.37
2018-11-20T01:04:14.893Z,99340.66
2018-11-20T01:07:04.021Z,99339.22
2018-11-20T01:10:11.572Z,99330.64
2018-11-20T01:13:11.624Z,99335.18
2018-11-20T01:16:14.443Z,99331.78
2018-11-20T01:19:03.447Z,99331.94
2018-11-20T01:22:11.884Z,99324.13
2018-11-20T01:25:00.884Z,99311.17
2018-11-20T01:27:52.624Z,99290.10
2018-11-20T01:30:55.918Z,99283.31
2018-11-20T01:37:09.512Z,99276.03
2018-11-20T01:40:07.178Z,99273.27
2018-11-20T01:42:55.959Z,99272.44
2018-11-20T01:46:03.511Z,99267.56
2018-11-20T01:48:52.303Z,99256.56
2018-11-20T01:51:42.597Z,99254.75
2018-11-20T01:54:31.584Z,99254.37
2018-11-20T01:57:21.617Z,99266.35
2018-11-20T02:03:24.810Z,99272.61
2018-11-20T02:06:35.241Z,99265.45
2018-11-20T02:09:27.369Z,99262.70
2018-11-20T02:12:33.085Z,99263.86
2018-11-20T02:15:33.312Z,99264.51
2018-11-20T02:18:18.199Z,99268.84
2018-11-20T02:21:21.183Z,99273.22
2018-11-20T02:24:32.681Z,99273.03
2018-11-20T02:27:40.172Z,99267.68
2018-11-20T02:30:43.330Z,99247.51
2018-11-20T02:33:43.427Z,99268.62
2018-11-20T02:36:34.830Z,99251.12
2018-11-20T02:39:42.334Z,99246.14
2018-11-20T02:42:29.681Z,99254.08
2018-11-20T02:45:18.598Z,99236.95
2018-11-20T02:48:07.845Z,99243.23
2018-11-20T02:51:15.967Z,99251.61
2018-11-20T02:54:04.706Z,99248.83
2018-11-20T02:57:09.826Z,99256.67
2018-11-20T03:03:11.739Z,99255.66
2018-11-20T03:06:00.704Z,99253.23
2018-11-20T03:09:08.996Z,99147.52
2018-11-20T03:12:02.302Z,99237.61
2018-11-20T03:15:05.149Z,99232.98
2018-11-20T03:18:12.742Z,99227.32
2018-11-20T03:21:01.439Z,99223.72
2018-11-20T03:23:50.288Z,99207.08
2018-11-20T03:26:57.815Z,99204.28
2018-11-20T03:33:37.478Z,99195.45
2018-11-20T03:36:24.602Z,99190.44
2018-11-20T03:39:33.132Z,99183.44
2018-11-20T03:45:42.291Z,99185.77
2018-11-20T03:48:31.048Z,99190.14
2018-11-20T03:51:12.967Z,99197.32
2018-11-20T03:57:35.554Z,99179.91
2018-11-20T04:00:35.751Z,99182.78
2018-11-20T04:03:16.484Z,99180.88
2018-11-20T04:09:15.645Z,99183.80
2018-11-20T04:32:29.899Z,99174.44
2018-11-20T04:35:29.777Z,99182.61
2018-11-20T04:38:24.396Z,99193.35
2018-11-20T04:41:32.014Z,99201.30
2018-11-20T04:44:39.764Z,99197.17
2018-11-20T04:47:42.884Z,99202.45
2018-11-20T04:50:50.260Z,99192.81
2018-11-20T04:53:53.128Z,99179.95
2018-11-20T04:56:41.313Z,99178.48
2018-11-20T04:59:48.705Z,99185.23
2018-11-20T05:02:36.881Z,99165.50
2018-11-20T05:08:40.336Z,99183.70
2018-11-20T05:11:21.965Z,99173.02
2018-11-20T05:14:22.002Z,99173.38
2018-11-20T05:17:29.481Z,99173.50
2018-11-20T05:20:36.879Z,99165.29
2018-11-20T05:26:51.566Z,99152.98
2018-11-20T05:29:51.341Z,99152.01
2018-11-20T05:33:00.520Z,99147.52
2018-11-20T05:35:48.904Z,99156.54
2018-11-20T05:41:37.113Z,99159.09
2018-11-20T05:44:25.820Z,99160.27
2018-11-20T05:47:32.753Z,99093.39
2018-11-20T05:50:35.456Z,99152.61
2018-11-20T05:53:23.687Z,99145.48
2018-11-20T05:56:39.795Z,99138.03
2018-11-20T06:03:08.175Z,99142.03
2018-11-20T06:09:30.667Z,99143.88
2018-11-20T06:15:48.164Z,99141.38
2018-11-20T06:18:56.888Z,99053.86
2018-11-20T06:22:05.004Z,99145.81
2018-11-20T06:25:12.453Z,99148.23
2018-11-20T06:28:12.284Z,99157.63
2018-11-20T06:31:19.884Z,99156.93
2018-11-20T06:34:27.431Z,99160.84
2018-11-20T06:37:30.642Z,99149.27
2018-11-20T06:40:30.512Z,99156.95
2018-11-20T06:43:36.421Z,99163.58
2018-11-20T06:46:36.800Z,99163.91
2018-11-20T06:49:37.132Z,99165.69
2018-11-20T06:52:43.647Z,99161.59
2018-11-20T06:55:33.773Z,99161.27
2018-11-20T06:58:41.076Z,99162.19
2018-11-20T07:04:49.117Z,99150.03
2018-11-20T07:07:38.480Z,99154.95
2018-11-20T07:10:45.694Z,99154.93
2018-11-20T07:13:38.948Z,99154.29
2018-11-20T07:19:56.429Z,99159.05
2018-11-20T07:22:53.594Z,99149.70
2018-11-20T07:25:35.823Z,99148.84
2018-11-20T07:28:36.021Z,99153.80
2018-11-20T07:31:24.604Z,99146.02
2018-11-20T07:34:34.607Z,99152.83
2018-11-20T07:37:32.676Z,99155.74
2018-11-20T07:49:29.511Z,99144.78
2018-11-20T07:52:31.188Z,99135.21
2018-11-20T07:55:19.551Z,99138.52
2018-11-20T07:58:27.098Z,99138.34
2018-11-20T08:01:29.621Z,99107.94
2018-11-20T08:04:32.646Z,99134.23
2018-11-20T08:07:35.684Z,99139.25
2018-11-20T08:13:48.954Z,99135.53
2018-11-20T08:16:37.401Z,99133.42
2018-11-20T08:19:59.388Z,99120.11
2018-11-20T08:26:02.121Z,99127.50
2018-11-20T08:29:02.420Z,99129.80
2018-11-20T08:32:02.819Z,99126.31
2018-11-20T08:35:10.862Z,99121.97
2018-11-20T08:38:19.053Z,99118.77
2018-11-20T08:41:25.533Z,99123.41
2018-11-20T08:44:14.700Z,99125.83
2018-11-20T08:47:22.287Z,99129.08
2018-11-20T08:56:41.505Z,99121.45
2018-11-20T08:59:31.228Z,99121.97
2018-11-20T09:02:39.402Z,99099.33
2018-11-20T09:05:46.666Z,99111.55
2018-11-20T09:11:50.432Z,99021.11
2018-11-20T09:17:58.605Z,99101.34
2018-11-20T09:20:48.335Z,99100.69
2018-11-20T09:23:55.942Z,99101.43
2018-11-20T09:30:22.966Z,99098.86
2018-11-20T09:39:03.162Z,99098.33
2018-11-20T09:41:44.764Z,99093.91
2018-11-20T09:44:36.787Z,99091.38
2018-11-20T09:48:03.256Z,99088.61
2018-11-20T09:50:52.300Z,99092.38
2018-11-20T09:54:01.305Z,99087.56
2018-11-20T09:57:04.440Z,99088.38
2018-11-20T10:00:04.978Z,99090.00
2018-11-20T10:02:55.592Z,99083.03
2018-11-20T10:06:03.197Z,99072.96
2018-11-20T10:08:47.158Z,99077.19
2018-11-20T10:11:47.428Z,99076.03
2018-11-20T10:17:55.924Z,99075.14
2018-11-20T10:21:03.268Z,99063.64
2018-11-20T10:24:03.212Z,99063.94
2018-11-20T10:26:51.783Z,99059.09
2018-11-20T10:29:59.095Z,99057.59
2018-11-20T10:32:48.723Z,99063.53
2018-11-20T10:35:51.842Z,99063.23
2018-11-20T10:38:40.469Z,99060.64
2018-11-20T10:41:30.212Z,99070.22
2018-11-20T10:44:20.572Z,99052.20
2018-11-20T10:47:18.509Z,99063.52
2018-11-20T10:50:15.519Z,99054.30
2018-11-20T10:53:03.220Z,99046.06
2018-11-20T10:55:44.068Z,99046.95
2018-11-20T10:58:30.892Z,99042.41
2018-11-20T11:01:38.878Z,99031.08
2018-11-20T11:04:46.510Z,99028.51
2018-11-20T11:07:34.787Z,99034.05
2018-11-20T11:10:42.023Z,99022.09
2018-11-20T11:13:43.002Z,99010.65
2018-11-20T11:16:43.249Z,99007.85
2018-11-20T11:19:31.704Z,99013.50
2018-11-20T11:22:38.910Z,98999.48
2018-11-20T11:25:28.934Z,98998.11
2018-11-20T11:28:36.250Z,99006.52
2018-11-20T11:31:25.209Z,98994.23
2018-11-20T11:37:33.626Z,98989.19
2018-11-20T11:40:43.717Z,98984.77
2018-11-20T11:43:31.893Z,98986.84
2018-11-20T11:46:39.041Z,98977.91
2018-11-20T11:49:27.500Z,98971.91
2018-11-20T11:52:17.180Z,98969.88
2018-11-20T11:55:05.277Z,98973.31
2018-11-20T11:57:53.615Z,98966.47
2018-11-20T12:00:42.073Z,98962.27
2018-11-20T12:03:49.517Z,98956.83
2018-11-20T12:06:55.875Z,98956.91
2018-11-20T12:16:20.983Z,98956.94
2018-11-20T12:22:39.946Z,98968.03
2018-11-20T12:25:40.029Z,98967.14
2018-11-20T12:28:29.113Z,98963.59
2018-11-20T12:31:16.995Z,98965.36
2018-11-20T12:34:05.684Z,98870.31
2018-11-20T12:36:53.639Z,98975.78
2018-11-20T12:39:58.417Z,98976.56
2018-11-20T12:43:05.030Z,98970.08
2018-11-20T12:46:12.953Z,98969.33
2018-11-20T12:48:47.836Z,98960.42
2018-11-20T12:54:46.971Z,98960.66
2018-11-20T12:57:36.315Z,98950.81
2018-11-20T13:00:45.106Z,98949.09
2018-11-20T13:03:48.074Z,98944.48
2018-11-20T13:06:39.701Z,98846.95
2018-11-20T13:12:32.556Z,98940.45
2018-11-20T13:15:35.634Z,98946.81
2018-11-20T13:18:42.512Z,98846.26
2018-11-20T13:21:51.754Z,98937.56
2018-11-20T13:24:49.565Z,98941.13
2018-11-20T13:27:55.513Z,98939.83
2018-11-20T13:30:55.526Z,98926.87
2018-11-20T13:36:33.964Z,98930.20
2018-11-20T13:39:42.723Z,98933.25
2018-11-20T13:42:55.585Z,98950.29
2018-11-20T13:45:56.363Z,98948.67
2018-11-20T13:48:45.327Z,98959.67
2018-11-20T13:52:02.964Z,98868.42
2018-11-20T13:54:53.267Z,98951.99
2018-11-20T13:58:01.358Z,98951.16
2018-11-20T14:01:09.289Z,98944.92
2018-11-20T14:04:20.596Z,98946.16
2018-11-20T14:13:11.982Z,98947.36
2018-11-20T14:19:18.190Z,98951.45
2018-11-20T14:22:00.668Z,98948.00
2018-11-20T14:24:49.713Z,98945.20
2018-11-20T14:27:37.758Z,98955.42
2018-11-20T14:30:38.062Z,98950.50
2018-11-20T14:33:27.481Z,98951.48
2018-11-20T14:36:34.787Z,98972.68
2018-11-20T14:39:15.512Z,98957.70
2018-11-20T14:42:05.713Z,98965.08
2018-11-20T14:45:13.681Z,98966.08
2018-11-20T14:48:12.934Z,98971.27
2018-11-20T14:50:48.613Z,98971.38
2018-11-20T14:53:30.733Z,98984.72
2018-11-20T14:56:18.958Z,98983.62
2018-11-20T14:59:06.381Z,98982.50
2018-11-20T15:01:54.742Z,98982.45
2018-11-20T15:04:45.343Z,98995.00
2018-11-20T15:07:26.348Z,98996.13
2018-11-20T15:10:20.930Z,98995.16
2018-11-20T15:13:12.318Z,98997.69
2018-11-20T15:15:59.380Z,99005.55
2018-11-20T15:18:50.356Z,99010.50
2018-11-20T15:21:36.777Z,99007.97
2018-11-20T15:24:24.824Z,99007.91
2018-11-20T15:27:23.718Z,98999.81
2018-11-20T15:30:24.340Z,98996.33
2018-11-20T15:33:24.386Z,98991.29
2018-11-20T15:36:12.420Z,98988.20
2018-11-20T15:39:19.624Z,98985.15
2018-11-20T15:42:19.187Z,98989.09
2018-11-20T15:45:20.890Z,98996.53
2018-11-20T15:48:28.083Z,99001.43
2018-11-20T15:51:35.254Z,99004.55
2018-11-20T15:57:15.675Z,99008.57
2018-11-20T16:00:15.241Z,99009.73
2018-11-20T16:03:15.375Z,99011.89
2018-11-20T16:06:03.755Z,99012.52
2018-11-20T16:09:11.690Z,99010.25
2018-11-20T16:18:43.214Z,99001.14
2018-11-20T16:21:43.098Z,99003.91
2018-11-20T16:24:51.268Z,99004.00
2018-11-20T16:27:58.785Z,99001.20
2018-11-20T16:30:49.985Z,99008.63
2018-11-20T16:33:34.984Z,99007.56
2018-11-20T16:36:35.356Z,99011.72
2018-11-20T16:39:32.375Z,99016.27
2018-11-20T16:42:19.388Z,98862.09
2018-11-20T16:45:23.595Z,99040.33
2018-11-20T16:48:18.037Z,99044.16
2018-11-20T16:51:05.436Z,99039.03
2018-11-20T16:54:02.744Z,99034.83
2018-11-20T16:57:09.897Z,99032.06
2018-11-20T17:00:17.166Z,99040.59
2018-11-20T17:03:18.425Z,99043.93
2018-11-20T17:06:19.654Z,99047.16
2018-11-20T17:09:21.221Z,99047.39
2018-11-20T17:12:11.290Z,99041.34
2018-11-20T17:14:58.293Z,99034.85
2018-11-20T17:17:38.717Z,99038.25
2018-11-20T17:20:29.250Z,99044.62
2018-11-20T17:23:20.172Z,99043.19
2018-11-20T17:26:18.270Z,99045.72
2018-11-20T17:32:01.471Z,99054.63
2018-11-20T17:38:01.787Z,99061.13
2018-11-20T17:41:09.065Z,99065.34
2018-11-20T17:44:16.648Z,99068.92
2018-11-20T17:47:17.690Z,99068.42
2018-11-20T17:52:40.371Z,99078.14
2018-11-20T17:55:24.786Z,98990.13
2018-11-20T17:58:12.976Z,99083.77
2018-11-20T18:01:20.717Z,99090.56
2018-11-20T18:04:21.559Z,99088.11
2018-11-20T18:07:21.393Z,99089.91
2018-11-20T18:10:10.492Z,99090.83
2018-11-20T18:13:17.777Z,99087.25
2018-11-20T18:16:17.959Z,99092.09
2018-11-20T18:19:19.355Z,99094.80
2018-11-20T18:22:17.951Z,99093.01
2018-11-20T18:25:17.658Z,99084.56
2018-11-20T18:28:05.937Z,99097.16
2018-11-20T18:30:54.380Z,99100.08
2018-11-20T18:33:43.340Z,99094.22
2018-11-20T18:39:24.089Z,99096.56
2018-11-20T18:42:10.667Z,99097.86
2018-11-20T18:45:17.895Z,99093.67
2018-11-20T18:51:24.030Z,99100.91
2018-11-20T18:54:14.170Z,99095.84
2018-11-20T18:57:15.578Z,99099.09
2018-11-20T19:00:21.880Z,99107.52
2018-11-20T19:06:05.394Z,99105.91
2018-11-20T19:09:12.762Z,99108.06
2018-11-20T19:11:52.919Z,99111.47
2018-11-20T19:14:53.011Z,99118.07
2018-11-20T19:21:00.081Z,99110.28
2018-11-20T19:24:07.702Z,99102.22
2018-11-20T19:27:15.052Z,99112.28
2018-11-20T19:30:18.001Z,99114.23
2018-11-20T19:33:28.671Z,99106.59
2018-11-20T19:36:35.393Z,99115.47
2018-11-20T19:39:37.771Z,99115.13
2018-11-20T19:45:53.351Z,99128.71
2018-11-20T19:48:53.005Z,99133.15
2018-11-20T19:55:08.505Z,99149.09
2018-11-20T19:57:57.386Z,99153.80
2018-11-20T20:01:04.932Z,99156.73
2018-11-20T20:04:08.372Z,99164.20
2018-11-20T20:06:48.851Z,99157.71
2018-11-20T20:09:56.168Z,99155.44
2018-11-20T20:13:03.336Z,99159.16
2018-11-20T20:19:16.228Z,99165.40
2018-11-20T20:22:05.004Z,99166.53
2018-11-20T20:28:31.549Z,99162.15
2018-11-20T20:31:39.017Z,99170.57
2018-11-20T20:34:27.735Z,99175.53
2018-11-20T20:37:35.386Z,99180.72
2018-11-20T20:40:34.628Z,99190.52
2018-11-20T20:43:41.848Z,99193.28
2018-11-20T20:46:49.713Z,99200.23
2018-11-20T20:49:37.679Z,99199.59
2018-11-20T20:52:43.436Z,99204.08
2018-11-20T20:55:49.764Z,99213.48
2018-11-20T20:58:57.524Z,99220.28
2018-11-20T21:02:23.866Z,99215.75
2018-11-20T21:05:27.273Z,99209.61
2018-11-20T21:08:27.636Z,99211.91
2018-11-20T21:11:35.130Z,99218.98
2018-11-20T21:14:32.430Z,99218.98
2018-11-20T21:17:32.965Z,99227.27
2018-11-20T21:20:32.459Z,99228.23
2018-11-20T21:23:39.782Z,99227.75
2018-11-20T21:29:45.147Z,99233.65
2018-11-20T21:32:52.479Z,99241.90
2018-11-20T21:35:52.718Z,99237.20
2018-11-20T21:38:57.211Z,99237.52
2018-11-20T21:42:05.366Z,99238.01
2018-11-20T21:45:08.741Z,99243.20
2018-11-20T21:48:04.174Z,99246.23
2018-11-20T21:50:50.399Z,99243.78
2018-11-20T21:53:28.795Z,99244.39
2018-11-20T21:56:36.092Z,99247.45
2018-11-20T21:59:27.598Z,99241.77
2018-11-20T22:02:15.635Z,99242.75
2018-11-20T22:05:22.930Z,99244.71
2018-11-20T22:08:30.260Z,99243.19
2018-11-20T22:11:16.015Z,99247.14
2018-11-20T22:14:20.162Z,99249.07
2018-11-20T22:17:00.715Z,99249.85
2018-11-20T22:20:10.818Z,99254.12
2018-11-20T22:23:16.148Z,99268.93
2018-11-20T22:26:03.170Z,99273.80
2018-11-20T22:32:22.823Z,99275.69
2018-11-20T22:35:23.867Z,99279.59
2018-11-20T22:38:28.328Z,99281.86
2018-11-20T22:51:19.470Z,99296.36
2018-11-20T22:54:25.649Z,99293.59
2018-11-20T22:57:35.520Z,99297.28
2018-11-20T23:00:35.737Z,99297.76
2018-11-20T23:03:35.710Z,99299.86
2018-11-20T23:06:22.300Z,99294.35
2018-11-20T23:09:04.105Z,99292.08
2018-11-20T23:11:33.707Z,99290.89
2018-11-20T23:14:03.869Z,99276.89
2018-11-20T23:16:34.117Z,99294.30
2018-11-20T23:19:22.402Z,99295.92
2018-11-20T23:22:02.903Z,99299.00
2018-11-20T23:24:44.081Z,99300.94
2018-11-20T23:27:25.334Z,99297.16
2018-11-20T23:29:54.663Z,99304.95
2018-11-20T23:32:23.721Z,99306.13
2018-11-20T23:34:52.920Z,99305.64
2018-11-20T23:37:25.001Z,99307.06
2018-11-20T23:42:44.098Z,99308.24
2018-11-20T23:45:32.541Z,99303.05
2018-11-20T23:48:13.619Z,99305.81
2018-11-20T23:50:54.769Z,99306.30
2018-11-20T23:59:04.382Z,99307.87
